Time;durP1;ratioP1;P1;durP2;ratioP2;P2;SDS_P1;SDS_P2;PMS_P1;PMS_P2;Temp;Humidity;BMP_temperature;BMP_pressure;BME280_temperature;BME280_humidity;BME280_pressure;Samples;Min_cycle;Max_cycle;Signal;HPM_P1;HPM_P2
2023/12/26 00:01:50;;;;;;;5.53;1.87;;;12.00;99.90;;;;;;7287483;19;20188;-80
2023/12/26 00:04:16;;;;;;;5.53;1.80;;;11.90;99.90;;;;;;7287685;19;20220;-78
2023/12/26 00:06:43;;;;;;;3.50;1.40;;;11.90;99.90;;;;;;7301373;19;20555;-80
2023/12/26 00:09:13;;;;;;;4.80;1.77;;;11.90;99.90;;;;;;7310342;19;20248;-82
2023/12/26 00:11:43;;;;;;;9.17;2.10;;;12.00;99.90;;;;;;7282404;19;20205;-81
2023/12/26 00:14:09;;;;;;;5.03;1.57;;;11.90;99.90;;;;;;7284209;19;20636;-82
2023/12/26 00:16:34;;;;;;;10.07;1.90;;;11.90;99.90;;;;;;7286863;19;20187;-82
2023/12/26 00:19:00;;;;;;;4.17;1.50;;;11.80;99.90;;;;;;7286578;19;20764;-82
2023/12/26 00:21:26;;;;;;;7.17;1.60;;;11.80;99.90;;;;;;7286743;19;20216;-82
2023/12/26 00:23:52;;;;;;;4.30;1.63;;;11.80;99.90;;;;;;7286731;19;20195;-80
2023/12/26 00:26:17;;;;;;;7.73;1.80;;;11.80;99.90;;;;;;7286486;19;20726;-80
2023/12/26 00:28:44;;;;;;;10.10;1.77;;;11.70;99.90;;;;;;7286055;19;20218;-80
2023/12/26 00:31:10;;;;;;;7.33;1.63;;;11.70;99.90;;;;;;7308301;19;20188;-81
2023/12/26 00:33:36;;;;;;;5.80;1.60;;;11.70;99.90;;;;;;7287614;19;20711;-82
2023/12/26 00:36:01;;;;;;;6.77;1.70;;;11.80;99.90;;;;;;7285989;19;20205;-81
2023/12/26 00:38:27;;;;;;;14.80;2.00;;;11.80;99.90;;;;;;7286489;19;20192;-81
2023/12/26 00:40:54;;;;;;;9.20;1.80;;;11.90;99.90;;;;;;7287708;19;20189;-81
2023/12/26 00:43:20;;;;;;;9.13;2.07;;;12.00;99.90;;;;;;7285902;19;20188;-81
2023/12/26 00:45:46;;;;;;;9.30;1.70;;;11.90;99.90;;;;;;7286664;19;20200;-80
2023/12/26 00:48:12;;;;;;;10.73;2.00;;;11.90;99.90;;;;;;7296015;19;20282;-79
2023/12/26 00:50:41;;;;;;;7.40;2.00;;;11.80;99.90;;;;;;7308555;19;20181;-80
2023/12/26 00:53:09;;;;;;;12.10;1.73;;;11.70;99.90;;;;;;7285733;19;20260;-81
2023/12/26 00:55:35;;;;;;;8.63;1.77;;;11.80;99.90;;;;;;7285537;19;20218;-80
2023/12/26 00:58:01;;;;;;;11.03;1.70;;;11.70;99.90;;;;;;7285472;19;20204;-80
2023/12/26 01:00:27;;;;;;;6.30;1.53;;;11.80;99.90;;;;;;7286707;19;20186;-81
2023/12/26 01:02:53;;;;;;;12.17;1.60;;;11.80;99.90;;;;;;7286675;19;20517;-82
2023/12/26 01:05:18;;;;;;;10.00;1.83;;;11.80;99.90;;;;;;7286272;19;20684;-82
2023/12/26 01:07:44;;;;;;;9.07;1.87;;;11.80;99.90;;;;;;7284418;19;20188;-82
2023/12/26 01:10:10;;;;;;;8.03;1.80;;;11.80;99.90;;;;;;7307244;19;20188;-81
2023/12/26 01:12:36;;;;;;;11.80;2.03;;;11.80;99.90;;;;;;7284313;19;20181;-81
2023/12/26 01:15:02;;;;;;;12.37;2.10;;;11.80;99.90;;;;;;7287026;19;20276;-81
2023/12/26 01:17:28;;;;;;;13.03;2.00;;;11.80;99.90;;;;;;7283604;19;20196;-82
2023/12/26 01:19:53;;;;;;;11.87;2.00;;;11.80;99.90;;;;;;7284843;19;20647;-82
2023/12/26 01:22:19;;;;;;;8.23;1.97;;;11.70;99.90;;;;;;7285462;19;20196;-81
2023/12/26 01:24:49;;;;;;;13.33;2.20;;;11.70;99.90;;;;;;7285216;19;20181;-81
2023/12/26 01:27:15;;;;;;;17.07;2.63;;;11.70;99.90;;;;;;7285281;19;20199;-81
2023/12/26 01:29:41;;;;;;;9.93;2.30;;;11.60;99.90;;;;;;7307545;19;20291;-82
2023/12/26 01:32:07;;;;;;;12.13;2.10;;;11.60;99.90;;;;;;7284444;19;20202;-82
2023/12/26 01:34:32;;;;;;;13.07;2.13;;;11.60;99.90;;;;;;7285238;19;20198;-82
2023/12/26 01:36:58;;;;;;;12.17;2.00;;;11.70;99.90;;;;;;7283395;19;20199;-82
2023/12/26 01:39:26;;;;;;;15.83;2.00;;;11.70;99.90;;;;;;7284011;19;20200;-82
2023/12/26 01:41:52;;;;;;;11.73;2.80;;;11.50;99.90;;;;;;7284869;19;20195;-81
2023/12/26 01:44:17;;;;;;;9.27;2.10;;;11.50;99.90;;;;;;7284920;19;20191;-81
2023/12/26 01:46:43;;;;;;;11.30;1.87;;;11.50;99.90;;;;;;7285054;19;21042;-81
2023/12/26 01:49:10;;;;;;;14.60;2.73;;;11.50;99.90;;;;;;7306682;19;20185;-81
2023/12/26 01:51:36;;;;;;;17.27;2.43;;;11.50;99.90;;;;;;7284511;19;20191;-81
2023/12/26 01:54:02;;;;;;;12.67;2.40;;;11.50;99.90;;;;;;7284314;19;20187;-80
2023/12/26 01:56:30;;;;;;;16.20;2.63;;;11.50;99.90;;;;;;7285060;19;20269;-82
2023/12/26 01:58:56;;;;;;;13.93;2.83;;;11.50;99.90;;;;;;7282197;19;20202;-81
2023/12/26 02:01:22;;;;;;;13.60;2.80;;;11.50;99.90;;;;;;7282201;19;20196;-81
2023/12/26 02:03:48;;;;;;;17.40;2.70;;;11.50;99.90;;;;;;7284127;19;20202;-81
2023/12/26 02:06:14;;;;;;;10.77;2.40;;;11.50;99.90;;;;;;7283451;19;20194;-81
2023/12/26 02:08:41;;;;;;;14.47;2.60;;;11.50;99.90;;;;;;7304356;19;20663;-82
2023/12/26 02:11:07;;;;;;;11.70;2.60;;;11.50;99.90;;;;;;7285001;19;20188;-82
2023/12/26 02:13:36;;;;;;;12.83;2.43;;;11.50;99.90;;;;;;7284084;19;20180;-82
2023/12/26 02:16:10;;;;;;;14.40;3.00;;;11.40;99.90;;;;;;7283785;19;20206;-82
2023/12/26 02:18:36;;;;;;;14.10;2.70;;;11.50;99.90;;;;;;7283145;19;20222;-82
2023/12/26 02:21:01;;;;;;;15.07;3.77;;;11.50;99.90;;;;;;7282704;19;20202;-81
2023/12/26 02:23:30;;;;;;;15.13;2.90;;;11.50;99.90;;;;;;7283938;19;20186;-81
2023/12/26 02:25:56;;;;;;;18.27;3.03;;;11.50;99.90;;;;;;7284419;19;20195;-81
2023/12/26 02:28:22;;;;;;;15.30;3.60;;;11.50;99.90;;;;;;7284147;19;20203;-81
2023/12/26 02:30:50;;;;;;;19.70;3.20;;;11.50;99.90;;;;;;7297737;19;20194;-81
2023/12/26 02:33:16;;;;;;;15.17;3.03;;;11.40;99.90;;;;;;7297179;19;20195;-81
2023/12/26 02:35:43;;;;;;;13.00;2.73;;;11.40;99.90;;;;;;7306853;19;20226;-80
2023/12/26 02:38:10;;;;;;;16.67;3.13;;;11.50;99.90;;;;;;7318959;19;20210;-81
2023/12/26 02:40:35;;;;;;;19.57;3.00;;;11.50;99.90;;;;;;7296132;19;20191;-81
2023/12/26 02:43:01;;;;;;;18.30;2.87;;;11.50;99.90;;;;;;7297080;19;20192;-81
2023/12/26 02:45:27;;;;;;;24.63;2.93;;;11.50;99.90;;;;;;7295590;19;20191;-81
2023/12/26 02:47:53;;;;;;;18.03;2.90;;;11.40;99.90;;;;;;7295952;19;20192;-81
2023/12/26 02:50:18;;;;;;;13.60;3.30;;;11.40;99.90;;;;;;7296116;19;20203;-81
2023/12/26 02:52:45;;;;;;;15.93;2.83;;;11.40;99.90;;;;;;7297294;19;20191;-81
2023/12/26 02:55:11;;;;;;;18.03;2.80;;;11.40;99.90;;;;;;7318215;19;20265;-81
2023/12/26 02:57:37;;;;;;;12.67;2.80;;;11.40;99.90;;;;;;7296599;19;20201;-81
2023/12/26 03:00:05;;;;;;;19.27;2.83;;;11.30;99.90;;;;;;7293384;19;20189;-81
2023/12/26 03:02:31;;;;;;;15.33;3.00;;;11.30;99.90;;;;;;7293166;19;20196;-81
2023/12/26 03:04:57;;;;;;;16.53;3.47;;;11.40;99.90;;;;;;7294629;19;20260;-81
2023/12/26 03:07:23;;;;;;;15.87;2.90;;;11.40;99.90;;;;;;7296499;19;20199;-81
2023/12/26 03:09:48;;;;;;;16.13;2.90;;;11.30;99.90;;;;;;7296466;19;20192;-81
2023/12/26 03:12:14;;;;;;;16.13;2.67;;;11.40;99.90;;;;;;7293755;19;20215;-80
2023/12/26 03:14:40;;;;;;;10.87;2.70;;;11.40;99.90;;;;;;7317249;19;20200;-81
2023/12/26 03:17:05;;;;;;;13.17;2.73;;;11.40;99.90;;;;;;7295554;19;20195;-81
2023/12/26 03:19:31;;;;;;;13.47;2.90;;;11.30;99.90;;;;;;7295290;19;20242;-81
2023/12/26 03:21:57;;;;;;;12.67;2.93;;;11.30;99.90;;;;;;7296201;19;20193;-81
2023/12/26 03:24:24;;;;;;;12.47;2.60;;;11.40;99.90;;;;;;7295339;19;20194;-81
2023/12/26 03:26:50;;;;;;;12.33;2.73;;;11.40;99.90;;;;;;7296397;19;20186;-81
2023/12/26 03:29:18;;;;;;;10.37;2.83;;;11.30;99.90;;;;;;7295315;19;20227;-81
2023/12/26 03:31:45;;;;;;;10.50;2.40;;;11.30;99.90;;;;;;7295393;19;20678;-80
2023/12/26 03:34:12;;;;;;;10.47;2.63;;;11.30;99.90;;;;;;7315739;19;20219;-82
2023/12/26 03:36:45;;;;;;;13.73;2.70;;;11.30;99.90;;;;;;7295416;19;20225;-81
2023/12/26 03:39:11;;;;;;;10.70;2.73;;;11.30;99.90;;;;;;7294036;19;20197;-81
2023/12/26 03:41:37;;;;;;;7.93;1.90;;;11.20;99.90;;;;;;7285589;19;20187;-81
2023/12/26 03:44:03;;;;;;;8.97;2.20;;;11.30;99.90;;;;;;7283369;19;20208;-82
2023/12/26 03:46:28;;;;;;;9.93;2.37;;;11.20;99.90;;;;;;7286362;19;20618;-81
2023/12/26 03:48:54;;;;;;;6.83;2.37;;;11.20;99.90;;;;;;7288304;19;20202;-82
2023/12/26 03:51:20;;;;;;;9.90;2.13;;;11.30;99.90;;;;;;7290524;19;20218;-81
2023/12/26 03:53:46;;;;;;;8.33;2.17;;;11.40;99.90;;;;;;7287043;19;20675;-81
2023/12/26 03:56:12;;;;;;;10.47;2.50;;;11.40;99.90;;;;;;7304983;19;20610;-78
2023/12/26 03:58:38;;;;;;;10.30;2.50;;;11.50;99.90;;;;;;7296293;19;20221;-81
2023/12/26 04:01:04;;;;;;;9.57;2.57;;;11.50;99.90;;;;;;7285152;19;20650;-81
2023/12/26 04:03:29;;;;;;;12.20;2.90;;;11.40;99.90;;;;;;7284062;19;20541;-81
2023/12/26 04:05:55;;;;;;;7.90;2.50;;;11.40;99.90;;;;;;7282042;19;20689;-81
2023/12/26 04:08:22;;;;;;;12.03;2.93;;;11.40;99.90;;;;;;7282704;19;20738;-81
2023/12/26 04:10:48;;;;;;;12.13;3.30;;;11.40;99.90;;;;;;7286273;19;20692;-81
2023/12/26 04:13:14;;;;;;;13.17;3.13;;;11.30;99.90;;;;;;7287183;19;20191;-80
2023/12/26 04:15:39;;;;;;;9.50;3.17;;;11.20;99.90;;;;;;7310103;19;20206;-82
2023/12/26 04:18:05;;;;;;;17.10;4.23;;;11.30;99.90;;;;;;7286628;19;20195;-82
2023/12/26 04:20:31;;;;;;;13.57;3.47;;;11.30;99.90;;;;;;7285967;19;20227;-82
2023/12/26 04:22:57;;;;;;;16.30;3.83;;;11.40;99.90;;;;;;7288675;19;20762;-82
2023/12/26 04:25:23;;;;;;;14.30;3.80;;;11.50;99.90;;;;;;7285654;19;20259;-82
2023/12/26 04:27:48;;;;;;;17.07;3.80;;;11.60;99.90;;;;;;7286829;19;20213;-81
2023/12/26 04:30:16;;;;;;;14.10;3.70;;;11.60;99.90;;;;;;7286192;19;20194;-81
2023/12/26 04:32:42;;;;;;;14.80;3.83;;;11.60;99.90;;;;;;7307570;19;20216;-82
2023/12/26 04:35:08;;;;;;;20.17;4.17;;;11.50;99.90;;;;;;7287106;19;20195;-81
2023/12/26 04:37:34;;;;;;;15.00;3.90;;;11.50;99.90;;;;;;7286558;19;21294;-81
2023/12/26 04:39:59;;;;;;;13.13;3.40;;;11.60;99.90;;;;;;7285012;19;20199;-82
2023/12/26 04:42:25;;;;;;;15.30;4.03;;;11.70;99.90;;;;;;7286464;19;20192;-81
2023/12/26 04:44:51;;;;;;;17.50;3.67;;;11.70;99.90;;;;;;7284959;19;20190;-81
2023/12/26 04:47:18;;;;;;;13.50;3.40;;;11.60;99.90;;;;;;7285000;19;20549;-81
2023/12/26 04:49:44;;;;;;;15.37;3.63;;;11.50;99.90;;;;;;7290496;19;20264;-81
2023/12/26 04:52:09;;;;;;;12.07;3.20;;;11.50;99.90;;;;;;7308201;19;20351;-81
2023/12/26 04:54:35;;;;;;;13.13;3.60;;;11.50;99.90;;;;;;7287369;19;20573;-81
2023/12/26 04:57:01;;;;;;;13.40;3.33;;;11.50;99.90;;;;;;7286675;19;20260;-81
2023/12/26 04:59:27;;;;;;;14.27;3.57;;;11.50;99.90;;;;;;7284892;19;20655;-81
2023/12/26 05:01:53;;;;;;;12.77;3.30;;;11.60;99.90;;;;;;7285744;19;20671;-81
2023/12/26 05:04:18;;;;;;;16.87;3.57;;;11.70;99.90;;;;;;7284515;19;20199;-80
2023/12/26 05:06:45;;;;;;;17.17;3.93;;;11.70;99.90;;;;;;7286039;19;20230;-80
2023/12/26 05:09:11;;;;;;;16.47;4.00;;;11.80;99.90;;;;;;7307561;19;20198;-81
2023/12/26 05:11:36;;;;;;;12.63;3.60;;;11.80;99.90;;;;;;7288188;19;20210;-82
2023/12/26 05:14:02;;;;;;;14.50;3.70;;;11.80;99.90;;;;;;7286911;19;20197;-80
2023/12/26 05:16:29;;;;;;;13.37;3.57;;;11.80;99.90;;;;;;7288418;19;20220;-82
2023/12/26 05:18:55;;;;;;;16.93;4.90;;;11.80;99.90;;;;;;7284354;19;20189;-81
2023/12/26 05:21:23;;;;;;;18.43;3.60;;;11.80;99.90;;;;;;7286510;19;20198;-81
2023/12/26 05:23:49;;;;;;;14.87;3.10;;;11.80;99.90;;;;;;7285862;19;20181;-81
2023/12/26 05:26:16;;;;;;;18.93;3.73;;;11.80;99.90;;;;;;7284630;19;20196;-80
2023/12/26 05:28:43;;;;;;;12.83;3.47;;;11.70;99.90;;;;;;7290789;19;20215;-80
2023/12/26 05:31:09;;;;;;;12.40;3.47;;;11.80;99.90;;;;;;7306830;19;20288;-81
2023/12/26 05:33:35;;;;;;;13.20;2.80;;;11.80;99.90;;;;;;7284792;19;20181;-81
2023/12/26 05:36:04;;;;;;;12.40;3.50;;;11.80;99.90;;;;;;7284959;19;20649;-81
2023/12/26 05:38:30;;;;;;;12.23;3.00;;;11.80;99.90;;;;;;7283616;19;20202;-81
2023/12/26 05:40:57;;;;;;;12.00;2.93;;;11.80;99.90;;;;;;7286017;19;20200;-81
2023/12/26 05:43:23;;;;;;;13.07;3.00;;;11.70;99.90;;;;;;7285224;19;20183;-80
2023/12/26 05:45:49;;;;;;;11.90;3.70;;;11.70;99.90;;;;;;7284160;19;20734;-81
2023/12/26 05:48:14;;;;;;;19.00;3.93;;;11.80;99.90;;;;;;7283748;19;20194;-80
2023/12/26 05:50:40;;;;;;;12.07;3.53;;;11.80;99.90;;;;;;7306204;19;20280;-80
2023/12/26 05:53:06;;;;;;;12.30;3.77;;;11.80;99.90;;;;;;7284213;19;20554;-80
2023/12/26 05:55:32;;;;;;;13.93;3.87;;;11.80;99.90;;;;;;7284488;19;20201;-81
2023/12/26 05:57:58;;;;;;;12.00;3.80;;;11.80;99.90;;;;;;7283842;19;20196;-81
2023/12/26 06:00:23;;;;;;;15.70;4.20;;;11.90;99.90;;;;;;7282599;19;20196;-80
2023/12/26 06:02:49;;;;;;;12.23;3.77;;;12.00;99.90;;;;;;7284056;19;20205;-80
2023/12/26 06:05:16;;;;;;;14.80;3.97;;;12.00;99.90;;;;;;7282671;19;20221;-80
2023/12/26 06:07:42;;;;;;;21.00;3.60;;;12.10;99.90;;;;;;7305110;19;20188;-81
2023/12/26 06:10:08;;;;;;;20.90;3.87;;;12.20;99.90;;;;;;7284636;19;20227;-81
2023/12/26 06:12:36;;;;;;;14.93;3.23;;;12.20;99.90;;;;;;7282908;19;20196;-81
2023/12/26 06:15:02;;;;;;;11.63;3.33;;;12.20;99.90;;;;;;7285017;19;20665;-81
2023/12/26 06:17:29;;;;;;;13.73;3.23;;;12.20;99.90;;;;;;7285177;19;20203;-81
2023/12/26 06:19:55;;;;;;;14.60;3.00;;;12.20;99.90;;;;;;7283624;19;20535;-80
2023/12/26 06:22:21;;;;;;;11.47;2.60;;;12.30;99.90;;;;;;7282982;19;20200;-81
2023/12/26 06:24:47;;;;;;;12.87;2.67;;;12.30;99.90;;;;;;7282361;19;20559;-80
2023/12/26 06:27:13;;;;;;;12.90;2.90;;;12.20;99.90;;;;;;7299288;19;20257;-79
2023/12/26 06:29:38;;;;;;;11.37;2.50;;;12.20;99.90;;;;;;7299194;19;20206;-80
2023/12/26 06:32:05;;;;;;;11.13;2.53;;;12.10;99.90;;;;;;7282351;19;20192;-81
2023/12/26 06:34:30;;;;;;;9.70;2.33;;;12.10;99.90;;;;;;7284104;19;20263;-81
2023/12/26 06:36:56;;;;;;;11.53;2.13;;;12.00;99.90;;;;;;7282670;19;20210;-80
2023/12/26 06:39:22;;;;;;;10.80;2.33;;;11.90;99.90;;;;;;7282940;19;20566;-80
2023/12/26 06:41:48;;;;;;;11.67;2.40;;;11.80;99.90;;;;;;7282043;19;20181;-80
2023/12/26 06:44:14;;;;;;;13.47;2.37;;;11.80;99.90;;;;;;7290139;19;20200;-80
2023/12/26 06:46:41;;;;;;;11.77;2.20;;;11.80;99.90;;;;;;7305638;19;20298;-82
2023/12/26 06:49:07;;;;;;;12.47;2.07;;;11.70;99.90;;;;;;7284667;19;20629;-81
2023/12/26 06:51:33;;;;;;;10.23;2.33;;;11.70;99.90;;;;;;7282639;19;20207;-82
2023/12/26 06:53:58;;;;;;;17.77;2.37;;;11.80;99.90;;;;;;7283988;19;20206;-81
2023/12/26 06:56:24;;;;;;;13.33;1.93;;;11.80;99.90;;;;;;7283478;19;20185;-81
2023/12/26 06:58:52;;;;;;;12.27;1.93;;;11.80;99.90;;;;;;7281105;19;20188;-81
2023/12/26 07:01:18;;;;;;;13.57;1.80;;;11.80;99.90;;;;;;7283124;19;20195;-81
2023/12/26 07:03:43;;;;;;;14.93;1.80;;;11.80;99.90;;;;;;7290803;19;20549;-81
2023/12/26 07:06:09;;;;;;;10.40;1.70;;;11.80;99.90;;;;;;7304063;19;20256;-81
2023/12/26 07:08:35;;;;;;;10.80;1.53;;;11.70;99.90;;;;;;7281719;19;20205;-81
2023/12/26 07:11:01;;;;;;;8.63;1.30;;;11.80;99.90;;;;;;7283147;19;20191;-81
2023/12/26 07:13:26;;;;;;;10.10;1.77;;;11.80;99.90;;;;;;7281833;19;20207;-81
2023/12/26 07:15:52;;;;;;;12.57;1.80;;;11.80;99.90;;;;;;7284292;19;20307;-80
2023/12/26 07:18:18;;;;;;;14.90;1.70;;;11.60;99.90;;;;;;7289423;19;20195;-81
2023/12/26 07:20:44;;;;;;;10.27;1.60;;;11.60;99.90;;;;;;7290905;19;20217;-80
2023/12/26 07:23:10;;;;;;;8.93;1.60;;;11.60;99.90;;;;;;7310855;19;20202;-81
2023/12/26 07:25:37;;;;;;;10.63;1.50;;;11.50;99.90;;;;;;7288619;19;20229;-80
2023/12/26 07:28:03;;;;;;;19.77;2.30;;;11.50;99.90;;;;;;7289046;19;20217;-80
2023/12/26 07:30:30;;;;;;;9.10;1.43;;;11.50;99.90;;;;;;7289244;19;20207;-81
2023/12/26 07:32:56;;;;;;;13.00;1.67;;;11.50;99.90;;;;;;7289189;19;20267;-82
2023/12/26 07:35:21;;;;;;;10.07;1.80;;;11.50;99.90;;;;;;7287956;19;20617;-82
2023/12/26 07:37:47;;;;;;;6.93;1.43;;;11.50;99.90;;;;;;7289867;19;20191;-81
2023/12/26 07:40:13;;;;;;;6.33;1.40;;;11.50;99.90;;;;;;7303806;19;20197;-81
2023/12/26 07:42:39;;;;;;;19.03;1.93;;;11.40;99.90;;;;;;7306429;19;20250;-81
2023/12/26 07:45:05;;;;;;;9.73;1.67;;;11.50;99.90;;;;;;7287115;19;20250;-83
2023/12/26 07:47:31;;;;;;;13.57;1.40;;;11.30;99.90;;;;;;7288379;19;20542;-80
2023/12/26 07:49:56;;;;;;;11.30;1.23;;;11.30;99.90;;;;;;7287880;19;20202;-81
2023/12/26 07:52:23;;;;;;;12.67;1.43;;;11.30;99.90;;;;;;7287231;19;20219;-81
2023/12/26 07:54:49;;;;;;;14.13;1.60;;;11.30;99.90;;;;;;7287284;19;20577;-81
2023/12/26 07:57:14;;;;;;;12.57;1.83;;;11.30;99.90;;;;;;7287887;19;20190;-81
2023/12/26 07:59:40;;;;;;;13.93;1.87;;;11.30;99.90;;;;;;7309333;19;20184;-81
2023/12/26 08:02:06;;;;;;;9.90;1.30;;;11.30;99.90;;;;;;7287241;19;20199;-81
2023/12/26 08:04:32;;;;;;;14.87;1.83;;;11.30;99.90;;;;;;7287108;19;20189;-83
2023/12/26 08:06:57;;;;;;;13.43;2.13;;;11.30;99.90;;;;;;7288405;19;20206;-82
2023/12/26 08:09:23;;;;;;;10.03;1.50;;;11.30;99.90;;;;;;7288494;19;20696;-82
2023/12/26 08:11:49;;;;;;;13.97;1.53;;;11.40;99.90;;;;;;7287872;19;20206;-82
2023/12/26 08:14:17;;;;;;;11.47;1.73;;;11.30;99.90;;;;;;7289586;19;20272;-82
2023/12/26 08:16:45;;;;;;;15.73;1.70;;;11.30;99.90;;;;;;7303704;19;20222;-81
2023/12/26 08:19:11;;;;;;;13.07;2.00;;;11.40;99.90;;;;;;7307693;19;20184;-82
2023/12/26 08:21:37;;;;;;;9.23;1.63;;;11.50;99.90;;;;;;7284980;19;20209;-82
2023/12/26 08:24:07;;;;;;;14.17;1.70;;;11.50;99.90;;;;;;7287033;19;20194;-82
2023/12/26 08:26:33;;;;;;;14.77;2.13;;;11.60;99.90;;;;;;7283710;19;20321;-81
2023/12/26 08:28:59;;;;;;;12.97;1.80;;;11.50;99.90;;;;;;7284171;19;20208;-81
2023/12/26 08:31:28;;;;;;;11.47;1.70;;;11.50;99.90;;;;;;7283108;19;20195;-81
2023/12/26 08:33:55;;;;;;;12.50;1.83;;;11.40;99.90;;;;;;7286708;19;20205;-81
2023/12/26 08:36:21;;;;;;;15.23;1.97;;;11.50;99.90;;;;;;7285401;19;20188;-82
2023/12/26 08:38:47;;;;;;;10.10;1.80;;;11.50;99.90;;;;;;7285969;19;20202;-80
2023/12/26 08:41:13;;;;;;;11.47;1.97;;;11.50;99.90;;;;;;7308538;19;20187;-81
2023/12/26 08:43:38;;;;;;;10.73;1.70;;;11.60;99.90;;;;;;7285555;19;20184;-82
2023/12/26 08:46:05;;;;;;;16.27;2.27;;;11.50;99.90;;;;;;7284431;19;21008;-81
2023/12/26 08:48:31;;;;;;;12.53;2.00;;;11.50;99.90;;;;;;7287862;19;20664;-81
2023/12/26 08:50:58;;;;;;;10.20;1.50;;;11.60;99.90;;;;;;7286015;19;20181;-82
2023/12/26 08:53:24;;;;;;;12.37;1.70;;;11.70;99.90;;;;;;7286568;19;20190;-81
2023/12/26 08:55:50;;;;;;;11.20;1.80;;;11.80;99.90;;;;;;7286511;19;20202;-81
2023/12/26 08:58:16;;;;;;;11.87;1.47;;;11.90;99.90;;;;;;7286910;19;20202;-81
2023/12/26 09:00:41;;;;;;;10.50;1.70;;;12.00;99.90;;;;;;7308975;19;20252;-82
2023/12/26 09:03:07;;;;;;;15.40;1.93;;;12.10;99.90;;;;;;7288214;19;20749;-81
2023/12/26 09:05:33;;;;;;;14.67;1.90;;;12.10;99.90;;;;;;7285237;19;20268;-82
2023/12/26 09:07:59;;;;;;;12.07;2.00;;;12.20;99.90;;;;;;7285905;19;20670;-82
2023/12/26 09:10:25;;;;;;;11.63;2.37;;;12.30;99.90;;;;;;7285791;19;20195;-82
2023/12/26 09:12:51;;;;;;;20.07;3.30;;;12.30;99.90;;;;;;7284167;19;20722;-81
2023/12/26 09:15:17;;;;;;;22.67;3.50;;;12.30;99.90;;;;;;7285603;19;20196;-81
2023/12/26 09:17:43;;;;;;;14.27;2.00;;;12.40;99.90;;;;;;7302994;19;20194;-78
2023/12/26 09:20:12;;;;;;;14.50;1.93;;;12.50;99.90;;;;;;7300169;19;20222;-82
2023/12/26 09:22:38;;;;;;;17.13;1.90;;;12.60;99.90;;;;;;7286196;19;20200;-83
2023/12/26 09:25:07;;;;;;;17.17;2.37;;;12.60;99.90;;;;;;7284306;19;20174;-83
2023/12/26 09:27:33;;;;;;;12.60;2.20;;;12.70;99.90;;;;;;7284101;19;20209;-82
2023/12/26 09:29:59;;;;;;;18.97;2.17;;;12.80;99.90;;;;;;7286238;19;20561;-83
2023/12/26 09:32:25;;;;;;;13.20;2.77;;;12.70;99.90;;;;;;7283689;19;20208;-83
2023/12/26 09:34:50;;;;;;;21.00;2.17;;;12.70;99.90;;;;;;7284493;19;20193;-82
2023/12/26 09:37:16;;;;;;;12.77;2.30;;;12.70;99.90;;;;;;7282371;19;20291;-82
2023/12/26 09:39:42;;;;;;;13.87;2.50;;;12.70;99.90;;;;;;7304686;19;20188;-83
2023/12/26 09:42:11;;;;;;;19.97;2.70;;;12.60;99.90;;;;;;7284266;19;20195;-82
2023/12/26 09:44:37;;;;;;;18.87;3.10;;;12.60;99.90;;;;;;7282775;19;20639;-82
2023/12/26 09:47:05;;;;;;;18.63;2.50;;;12.70;99.90;;;;;;7282697;19;20209;-83
2023/12/26 09:49:31;;;;;;;19.00;2.20;;;12.70;99.90;;;;;;7285484;19;20199;-83
2023/12/26 09:52:01;;;;;;;13.13;2.13;;;12.70;99.90;;;;;;7285368;19;20257;-83
2023/12/26 09:54:30;;;;;;;15.37;2.43;;;12.70;99.90;;;;;;7283788;19;20200;-83
2023/12/26 09:56:56;;;;;;;15.10;2.20;;;12.60;99.90;;;;;;7285415;19;20193;-82
2023/12/26 09:59:25;;;;;;;18.07;2.20;;;12.60;99.90;;;;;;7285942;19;20179;-81
2023/12/26 10:01:51;;;;;;;17.77;2.60;;;12.40;99.90;;;;;;7283672;19;20195;-76
2023/12/26 10:04:18;;;;;;;16.73;2.43;;;12.50;99.90;;;;;;7278815;19;20188;-76
2023/12/26 10:06:44;;;;;;;16.00;2.20;;;12.60;99.90;;;;;;7290669;19;20185;-77
2023/12/26 10:09:09;;;;;;;15.13;1.87;;;12.50;99.90;;;;;;7298833;19;20213;-76
2023/12/26 10:11:35;;;;;;;20.10;2.40;;;12.40;99.90;;;;;;7279591;19;20303;-76
2023/12/26 10:14:01;;;;;;;15.43;2.00;;;12.30;99.90;;;;;;7278999;19;20191;-76
2023/12/26 10:16:27;;;;;;;16.17;2.10;;;12.20;99.90;;;;;;7280398;19;20195;-76
2023/12/26 10:18:52;;;;;;;14.57;2.10;;;12.20;99.90;;;;;;7279746;19;20697;-75
2023/12/26 10:21:18;;;;;;;15.27;2.30;;;12.20;99.90;;;;;;7280299;19;20530;-76
2023/12/26 10:23:45;;;;;;;16.10;1.70;;;12.30;99.90;;;;;;7285573;19;20262;-77
2023/12/26 10:26:11;;;;;;;16.57;2.23;;;12.10;99.90;;;;;;7298814;19;20191;-76
2023/12/26 10:28:44;;;;;;;15.10;2.03;;;12.10;99.90;;;;;;7279616;19;20671;-76
2023/12/26 10:31:14;;;;;;;14.57;2.13;;;12.10;99.90;;;;;;7280419;19;20217;-77
2023/12/26 10:33:41;;;;;;;23.10;2.33;;;12.30;99.90;;;;;;7279094;19;20701;-78
2023/12/26 10:36:08;;;;;;;17.73;2.80;;;12.30;99.90;;;;;;7281098;19;20189;-77
2023/12/26 10:38:34;;;;;;;14.47;1.87;;;12.30;99.90;;;;;;7279519;19;20177;-77
2023/12/26 10:41:08;;;;;;;15.17;2.00;;;12.50;99.90;;;;;;7280221;19;20279;-78
2023/12/26 10:43:37;;;;;;;16.40;2.40;;;12.60;99.90;;;;;;7281895;19;20240;-78
2023/12/26 10:46:06;;;;;;;10.73;1.77;;;12.60;99.90;;;;;;7279659;19;20539;-78
2023/12/26 10:48:33;;;;;;;14.00;2.20;;;12.70;99.90;;;;;;7280639;19;20226;-78
2023/12/26 10:51:00;;;;;;;17.47;2.17;;;12.80;99.90;;;;;;7285794;19;20185;-79
2023/12/26 10:53:48;;;;;;;18.03;2.37;;;12.90;99.90;;;;;;7288235;19;20193;-77
2023/12/26 10:56:14;;;;;;;17.20;2.63;;;13.00;99.90;;;;;;7273527;19;20193;-78
2023/12/26 10:58:41;;;;;;;15.30;2.30;;;13.20;99.90;;;;;;7309748;19;20737;-78
2023/12/26 11:01:08;;;;;;;10.73;1.83;;;13.00;99.90;;;;;;7287707;19;20234;-77
2023/12/26 11:03:35;;;;;;;13.63;1.93;;;13.00;99.90;;;;;;7286225;19;20185;-77
2023/12/26 11:06:01;;;;;;;16.00;2.53;;;13.30;99.90;;;;;;7284795;19;20276;-75
2023/12/26 11:08:26;;;;;;;17.07;1.90;;;13.20;99.90;;;;;;7284899;19;20265;-77
2023/12/26 11:10:52;;;;;;;15.67;2.00;;;13.40;99.90;;;;;;7285829;19;20193;-77
2023/12/26 11:13:18;;;;;;;15.13;2.40;;;13.40;99.90;;;;;;7284846;19;20200;-76
2023/12/26 11:15:45;;;;;;;15.23;2.17;;;13.30;99.90;;;;;;7304109;19;20191;-75
2023/12/26 11:18:11;;;;;;;14.03;2.00;;;13.30;99.90;;;;;;7395386;19;20150;-77
2023/12/26 11:20:38;;;;;;;11.60;2.10;;;13.90;99.90;;;;;;7400703;19;20178;-83
2023/12/26 11:23:04;;;;;;;16.43;2.07;;;14.20;99.90;;;;;;7355190;19;20500;-82
2023/12/26 11:25:30;;;;;;;17.83;2.40;;;14.90;99.90;;;;;;7287109;19;20595;-77
2023/12/26 11:27:57;;;;;;;14.57;2.23;;;15.20;99.90;;;;;;7281403;19;20190;-76
2023/12/26 11:30:23;;;;;;;11.13;1.87;;;15.70;99.90;;;;;;7285814;19;20191;-77
2023/12/26 11:32:49;;;;;;;10.50;2.00;;;15.40;99.90;;;;;;7287378;19;20627;-76
2023/12/26 11:35:15;;;;;;;14.77;2.57;;;15.40;99.90;;;;;;7287028;19;20195;-76
2023/12/26 11:37:41;;;;;;;16.43;2.50;;;15.70;99.90;;;;;;7305672;19;20193;-76
2023/12/26 11:40:06;;;;;;;10.70;1.87;;;16.00;99.90;;;;;;7287343;19;20196;-83
2023/12/26 11:42:32;;;;;;;12.17;2.37;;;15.60;99.90;;;;;;7288949;19;20200;-77
2023/12/26 11:44:59;;;;;;;15.97;2.23;;;15.10;99.90;;;;;;7286768;19;20686;-82
2023/12/26 11:47:25;;;;;;;11.47;1.97;;;14.40;99.90;;;;;;7288246;19;20246;-82
2023/12/26 11:49:51;;;;;;;15.40;2.30;;;13.60;99.90;;;;;;7290664;19;20201;-83
2023/12/26 11:52:17;;;;;;;16.60;2.33;;;13.20;99.90;;;;;;7286293;19;20197;-76
2023/12/26 11:54:44;;;;;;;16.40;2.20;;;12.90;99.90;;;;;;7301327;19;20718;-77
2023/12/26 11:57:09;;;;;;;14.03;2.07;;;12.80;99.90;;;;;;7299060;19;20293;-76
2023/12/26 11:59:35;;;;;;;14.90;2.23;;;12.60;99.90;;;;;;7283347;19;20224;-78
2023/12/26 12:02:01;;;;;;;13.10;2.10;;;12.40;99.90;;;;;;7281097;19;20568;-76
2023/12/26 12:04:27;;;;;;;18.87;2.77;;;12.10;99.90;;;;;;7284929;19;20189;-77
2023/12/26 12:07:22;;;;;;;13.17;1.87;;;11.90;99.90;;;;;;7281966;19;20193;-75
2023/12/26 12:09:48;;;;;;;12.83;1.87;;;11.80;99.90;;;;;;7259848;19;20212;-76
2023/12/26 12:12:16;;;;;;;20.27;2.40;;;11.80;99.90;;;;;;7302167;19;20184;-76
2023/12/26 12:14:54;;;;;;;16.10;2.53;;;11.80;99.90;;;;;;7282207;19;20202;-76
2023/12/26 12:17:20;;;;;;;12.93;1.90;;;11.80;99.90;;;;;;7181743;19;2004655;-77
2023/12/26 12:19:46;;;;;;;16.67;2.33;;;12.00;99.90;;;;;;7280357;19;20183;-77
2023/12/26 12:22:23;;;;;;;12.47;2.10;;;12.10;99.90;;;;;;7299072;19;20224;-77
2023/12/26 12:24:49;;;;;;;13.67;2.20;;;12.20;99.90;;;;;;7180623;19;2004717;-77
2023/12/26 12:27:15;;;;;;;19.23;2.70;;;12.30;99.90;;;;;;7270488;19;21092;-81
2023/12/26 12:29:59;;;;;;;19.70;2.50;;;12.30;99.90;;;;;;7304965;19;20189;-77
2023/12/26 12:32:36;;;;;;;20.67;2.50;;;12.50;99.90;;;;;;7179353;19;2005973;-77
2023/12/26 12:35:14;;;;;;;16.87;2.47;;;12.60;99.90;;;;;;7281834;19;20188;-77